createdAt,value
2018-07-25T00:01:16.222Z,10.67
2018-07-25T00:04:04.906Z,10.60
2018-07-25T00:06:37.656Z,9.20
2018-07-25T00:09:12.303Z,10.37
2018-07-25T00:11:44.793Z,14.03
2018-07-25T00:14:17.629Z,12.60
2018-07-25T00:16:50.091Z,19.87
2018-07-25T00:19:22.720Z,12.60
2018-07-25T00:21:55.415Z,10.53
2018-07-25T00:24:27.902Z,12.37
2018-07-25T00:27:00.493Z,11.97
2018-07-25T00:29:33.012Z,12.23
2018-07-25T00:32:05.785Z,11.07
2018-07-25T00:34:38.379Z,10.13
2018-07-25T00:37:10.882Z,9.37
2018-07-25T00:39:43.830Z,11.85
2018-07-25T00:42:16.577Z,12.40
2018-07-25T00:44:49.083Z,12.70
2018-07-25T00:47:21.808Z,12.93
2018-07-25T00:49:54.437Z,17.83
2018-07-25T00:52:26.903Z,16.10
2018-07-25T00:55:00.137Z,14.20
2018-07-25T00:57:32.635Z,15.93
2018-07-25T01:00:05.329Z,17.73
2018-07-25T01:02:37.911Z,16.77
2018-07-25T01:05:10.665Z,16.63
2018-07-25T01:07:43.560Z,18.40
2018-07-25T01:10:16.336Z,18.53
2018-07-25T01:12:49.193Z,21.25
2018-07-25T01:15:21.861Z,20.40
2018-07-25T01:17:54.935Z,19.73
2018-07-25T01:20:27.530Z,19.30
2018-07-25T01:23:01.619Z,19.40
2018-07-25T01:25:32.849Z,19.33
2018-07-25T01:28:05.308Z,20.17
2018-07-25T01:30:37.884Z,24.77
2018-07-25T01:33:10.431Z,23.13
2018-07-25T01:35:42.980Z,20.90
2018-07-25T01:38:15.581Z,22.93
2018-07-25T01:40:48.164Z,23.47
2018-07-25T01:43:20.696Z,22.60
2018-07-25T01:45:53.262Z,25.05
2018-07-25T01:48:25.993Z,22.20
2018-07-25T01:50:58.475Z,20.30
2018-07-25T01:53:33.980Z,21.37
2018-07-25T01:56:06.583Z,14.47
2018-07-25T01:58:39.088Z,14.80
2018-07-25T02:01:11.490Z,14.43
2018-07-25T02:03:44.039Z,11.60
2018-07-25T02:06:16.672Z,12.23
2018-07-25T02:08:49.214Z,11.90
2018-07-25T02:11:21.941Z,14.27
2018-07-25T02:13:54.533Z,15.40
2018-07-25T02:16:27.064Z,10.27
2018-07-25T02:18:59.577Z,9.37
2018-07-25T02:21:32.018Z,9.63
2018-07-25T02:24:04.715Z,9.83
2018-07-25T02:26:37.320Z,9.73
2018-07-25T02:29:09.969Z,9.60
2018-07-25T02:31:42.403Z,10.23
2018-07-25T02:34:19.290Z,8.17
2018-07-25T02:36:52.886Z,8.40
2018-07-25T02:39:25.414Z,8.90
2018-07-25T02:41:58.122Z,10.67
2018-07-25T02:44:30.790Z,9.50
2018-07-25T02:47:03.732Z,9.60
2018-07-25T02:49:36.338Z,8.97
2018-07-25T02:52:08.993Z,8.60
2018-07-25T02:54:41.713Z,7.23
2018-07-25T02:57:14.310Z,10.07
2018-07-25T02:59:47.357Z,9.55
2018-07-25T03:02:19.896Z,10.93
2018-07-25T03:04:52.410Z,13.40
2018-07-25T03:07:24.816Z,12.70
2018-07-25T03:09:57.561Z,13.50
2018-07-25T03:12:30.193Z,14.50
2018-07-25T03:15:02.782Z,14.23
2018-07-25T03:17:35.163Z,14.30
2018-07-25T03:20:07.773Z,12.83
2018-07-25T03:22:40.322Z,16.60
2018-07-25T03:25:13.566Z,16.00
2018-07-25T03:27:46.148Z,15.70
2018-07-25T03:30:18.486Z,13.93
2018-07-25T03:32:51.133Z,19.60
2018-07-25T03:35:23.777Z,12.27
2018-07-25T03:38:02.509Z,13.50
2018-07-25T03:40:35.150Z,12.50
2018-07-25T03:43:07.927Z,12.33
2018-07-25T03:45:40.686Z,12.30
2018-07-25T03:48:13.187Z,11.97
2018-07-25T03:50:45.967Z,12.27
2018-07-25T03:53:18.511Z,11.80
2018-07-25T03:55:51.117Z,13.80
2018-07-25T03:58:25.285Z,11.57
2018-07-25T04:00:58.164Z,12.13
2018-07-25T04:03:30.684Z,12.57
2018-07-25T04:06:03.188Z,13.20
2018-07-25T04:08:35.883Z,13.70
2018-07-25T04:11:08.750Z,14.53
2018-07-25T04:13:41.267Z,19.77
2018-07-25T04:16:13.892Z,18.07
2018-07-25T04:18:46.637Z,14.00
2018-07-25T04:21:19.283Z,17.80
2018-07-25T04:23:51.734Z,13.07
2018-07-25T04:26:24.468Z,13.90
2018-07-25T04:28:57.033Z,12.83
2018-07-25T04:31:29.782Z,13.20
2018-07-25T04:34:02.442Z,13.65
2018-07-25T04:36:34.902Z,12.57
2018-07-25T04:39:09.603Z,11.33
2018-07-25T04:41:42.569Z,12.13
2018-07-25T04:44:15.215Z,11.47
2018-07-25T04:46:47.825Z,12.87
2018-07-25T04:49:20.470Z,14.87
2018-07-25T04:51:53.503Z,13.33
2018-07-25T04:54:25.915Z,14.18
2018-07-25T04:56:58.352Z,12.87
2018-07-25T04:59:31.124Z,11.23
2018-07-25T05:02:02.344Z,13.90
2018-07-25T05:04:34.993Z,12.07
2018-07-25T05:07:07.549Z,12.57
2018-07-25T05:09:40.225Z,11.63
2018-07-25T05:12:12.760Z,11.40
2018-07-25T05:14:45.530Z,12.20
2018-07-25T05:17:18.262Z,12.53
2018-07-25T05:19:50.749Z,10.73
2018-07-25T05:22:23.189Z,11.77
2018-07-25T05:24:55.840Z,50.73
2018-07-25T05:27:29.073Z,118.47
2018-07-25T05:30:01.655Z,43.77
2018-07-25T05:32:34.263Z,29.30
2018-07-25T05:35:07.013Z,16.60
2018-07-25T05:37:39.689Z,17.03
2018-07-25T05:40:12.229Z,18.90
2018-07-25T05:42:44.768Z,15.78
2018-07-25T05:45:17.403Z,14.23
2018-07-25T05:47:49.994Z,12.23
2018-07-25T05:50:22.432Z,11.93
2018-07-25T05:52:54.884Z,12.50
2018-07-25T05:55:27.483Z,12.57
2018-07-25T05:58:00.124Z,10.97
2018-07-25T06:00:32.647Z,10.37
2018-07-25T06:03:05.493Z,10.63
2018-07-25T06:05:38.115Z,11.03
2018-07-25T06:08:10.654Z,10.10
2018-07-25T06:10:43.114Z,9.60
2018-07-25T06:13:15.825Z,9.47
2018-07-25T06:15:48.398Z,10.03
2018-07-25T06:18:20.897Z,9.53
2018-07-25T06:20:53.662Z,10.32
2018-07-25T06:23:26.370Z,10.10
2018-07-25T06:25:59.016Z,9.83
2018-07-25T06:28:31.748Z,9.70
2018-07-25T06:31:04.284Z,12.45
2018-07-25T06:33:36.770Z,10.90
2018-07-25T06:36:09.518Z,11.83
2018-07-25T06:38:42.183Z,11.37
2018-07-25T06:41:15.165Z,10.53
2018-07-25T06:43:46.539Z,11.03
2018-07-25T06:46:20.779Z,11.70
2018-07-25T06:48:53.502Z,11.00
2018-07-25T06:51:26.195Z,10.60
2018-07-25T06:53:59.140Z,12.27
2018-07-25T06:56:32.218Z,12.03
2018-07-25T06:59:04.796Z,12.65
2018-07-25T07:01:37.293Z,12.00
2018-07-25T07:04:10.076Z,11.00
2018-07-25T07:06:42.715Z,13.08
2018-07-25T07:09:15.468Z,10.83
2018-07-25T07:11:47.919Z,11.50
2018-07-25T07:14:20.605Z,11.83
2018-07-25T07:16:53.178Z,11.37
2018-07-25T07:19:25.772Z,12.90
2018-07-25T07:21:58.541Z,13.33
2018-07-25T07:24:31.620Z,12.45
2018-07-25T07:27:04.333Z,11.60
2018-07-25T07:29:36.957Z,10.07
2018-07-25T07:32:09.304Z,11.00
2018-07-25T07:34:41.925Z,11.40
2018-07-25T07:37:14.960Z,12.43
2018-07-25T07:39:47.699Z,11.07
2018-07-25T07:42:20.449Z,10.40
2018-07-25T07:44:53.040Z,10.30
2018-07-25T07:47:25.588Z,10.97
2018-07-25T07:49:58.174Z,10.57
2018-07-25T07:52:30.785Z,10.57
2018-07-25T07:55:03.223Z,8.87
2018-07-25T07:57:35.954Z,11.40
2018-07-25T08:00:09.498Z,10.20
2018-07-25T08:02:42.127Z,10.57
2018-07-25T08:05:18.982Z,10.40
2018-07-25T08:07:51.587Z,10.60
2018-07-25T08:10:24.012Z,10.67
2018-07-25T08:12:56.373Z,10.60
2018-07-25T08:15:29.050Z,10.40
2018-07-25T08:18:01.614Z,11.97
2018-07-25T08:20:34.256Z,14.07
2018-07-25T08:23:06.768Z,11.77
2018-07-25T08:25:39.608Z,12.00
2018-07-25T08:28:12.352Z,11.83
2018-07-25T08:30:44.868Z,11.57
2018-07-25T08:33:17.355Z,13.25
2018-07-25T08:35:50.068Z,11.70
2018-07-25T08:38:30.652Z,11.47
2018-07-25T08:41:03.035Z,12.87
2018-07-25T08:43:34.247Z,11.53
2018-07-25T08:46:07.004Z,11.67
2018-07-25T08:48:40.003Z,13.43
2018-07-25T08:51:12.973Z,13.25
2018-07-25T08:53:46.074Z,12.57
2018-07-25T08:56:18.786Z,15.07
2018-07-25T08:58:51.394Z,14.95
2018-07-25T09:01:23.906Z,13.20
2018-07-25T09:03:56.535Z,14.60
2018-07-25T09:06:29.286Z,11.67
2018-07-25T09:09:02.058Z,11.77
2018-07-25T09:11:36.739Z,13.08
2018-07-25T09:14:09.444Z,13.00
2018-07-25T09:16:42.064Z,12.07
2018-07-25T09:19:14.684Z,14.27
2018-07-25T09:21:47.174Z,23.13
2018-07-25T09:24:19.914Z,11.53
2018-07-25T09:26:52.333Z,14.10
2018-07-25T09:29:25.156Z,11.93
2018-07-25T09:31:57.837Z,12.80
2018-07-25T09:34:30.288Z,11.93
2018-07-25T09:37:03.030Z,11.10
2018-07-25T09:39:35.579Z,11.53
2018-07-25T09:42:08.082Z,11.50
2018-07-25T09:44:40.988Z,10.97
2018-07-25T09:47:13.595Z,13.48
2018-07-25T09:49:46.208Z,12.73
2018-07-25T09:52:18.844Z,11.70
2018-07-25T09:54:51.454Z,10.93
2018-07-25T09:57:24.022Z,11.13
2018-07-25T09:59:56.817Z,11.40
2018-07-25T10:02:29.979Z,11.10
2018-07-25T10:05:02.687Z,11.40
2018-07-25T10:07:35.307Z,11.73
2018-07-25T10:10:08.268Z,12.73
2018-07-25T10:12:41.250Z,11.63
2018-07-25T10:15:13.963Z,13.83
2018-07-25T10:17:46.588Z,13.43
2018-07-25T10:20:19.117Z,15.43
2018-07-25T10:22:52.026Z,16.27
2018-07-25T10:25:24.694Z,14.40
2018-07-25T10:27:57.465Z,16.82
2018-07-25T10:30:30.019Z,15.27
2018-07-25T10:33:02.641Z,17.80
2018-07-25T10:35:35.848Z,60.80
2018-07-25T10:38:08.432Z,70.97
2018-07-25T10:40:41.760Z,59.37
2018-07-25T10:43:14.369Z,48.53
2018-07-25T10:45:48.020Z,35.00
2018-07-25T10:48:21.347Z,27.13
2018-07-25T10:50:53.972Z,24.27
2018-07-25T10:53:27.103Z,25.67
2018-07-25T10:55:59.824Z,41.73
2018-07-25T10:58:32.858Z,33.77
2018-07-25T11:01:19.600Z,39.57
2018-07-25T11:04:04.919Z,31.60
2018-07-25T11:09:38.032Z,57.73
2018-07-25T11:12:11.438Z,40.97
2018-07-25T11:14:44.777Z,28.43
2018-07-25T11:17:17.441Z,31.73
2018-07-25T11:19:50.071Z,28.40
2018-07-25T11:22:22.632Z,27.87
2018-07-25T11:24:55.401Z,21.47
2018-07-25T11:27:28.082Z,22.33
2018-07-25T11:30:00.693Z,17.97
2018-07-25T11:32:33.181Z,18.30
2018-07-25T11:35:05.764Z,24.40
2018-07-25T11:37:38.535Z,20.77
2018-07-25T11:40:11.738Z,20.00
2018-07-25T11:42:44.425Z,18.13
2018-07-25T11:45:16.860Z,18.27
2018-07-25T11:47:49.505Z,19.27
2018-07-25T11:50:22.168Z,20.40
2018-07-25T11:52:55.020Z,43.83
2018-07-25T11:55:27.518Z,24.00
2018-07-25T11:58:10.536Z,23.30
2018-07-25T12:00:43.006Z,19.43
2018-07-25T12:03:15.670Z,29.97
2018-07-25T12:05:48.205Z,26.52
2018-07-25T12:08:32.204Z,23.73
2018-07-25T12:11:05.512Z,22.87
2018-07-25T12:13:42.204Z,22.97
2018-07-25T12:16:13.561Z,24.43
2018-07-25T12:18:46.243Z,27.73
2018-07-25T12:21:19.381Z,20.60
2018-07-25T12:23:53.228Z,20.33
2018-07-25T12:26:25.914Z,19.67
2018-07-25T12:28:59.836Z,22.37
2018-07-25T12:31:32.412Z,30.35
2018-07-25T12:34:05.384Z,29.10
2018-07-25T12:36:36.744Z,25.97
2018-07-25T12:39:11.097Z,28.90
2018-07-25T12:41:44.272Z,22.00
2018-07-25T12:44:16.935Z,24.77
2018-07-25T12:46:48.123Z,21.63
2018-07-25T12:49:21.365Z,25.43
2018-07-25T12:51:54.041Z,27.20
2018-07-25T12:54:26.705Z,25.43
2018-07-25T12:57:02.746Z,20.13
2018-07-25T12:59:35.997Z,29.20
2018-07-25T13:02:08.785Z,21.73
2018-07-25T13:04:41.314Z,17.80
2018-07-25T13:07:13.967Z,15.75
2018-07-25T13:09:50.386Z,16.70
2018-07-25T13:12:24.718Z,18.80
2018-07-25T13:15:00.714Z,20.70
2018-07-25T13:17:39.873Z,16.77
2018-07-25T13:20:20.605Z,17.30
2018-07-25T13:22:58.032Z,17.13
2018-07-25T13:25:35.220Z,13.80
2018-07-25T13:28:08.882Z,17.57
2018-07-25T13:30:42.014Z,20.73
2018-07-25T13:33:17.551Z,20.03
2018-07-25T13:35:52.685Z,15.37
2018-07-25T13:38:27.037Z,12.77
2018-07-25T13:40:59.997Z,16.17
2018-07-25T13:43:32.746Z,14.07
2018-07-25T13:46:05.698Z,17.40
2018-07-25T13:48:47.096Z,25.57
2018-07-25T13:51:21.127Z,11.40
2018-07-25T13:53:54.889Z,20.17
2018-07-25T13:56:26.478Z,18.50
2018-07-25T13:58:58.918Z,12.40
2018-07-25T14:01:30.360Z,14.13
2018-07-25T14:04:03.570Z,15.60
2018-07-25T14:06:37.016Z,21.33
2018-07-25T14:09:13.855Z,49.57
2018-07-25T14:11:49.552Z,12.63
2018-07-25T14:14:24.785Z,13.03
2018-07-25T14:17:03.337Z,22.77
2018-07-25T14:19:36.236Z,22.10
2018-07-25T14:22:09.459Z,12.17
2018-07-25T14:24:46.266Z,11.93
2018-07-25T14:27:20.593Z,21.17
2018-07-25T14:29:55.273Z,11.97
2018-07-25T14:32:31.941Z,11.15
2018-07-25T14:35:07.038Z,11.37
2018-07-25T14:37:40.729Z,10.23
2018-07-25T14:40:16.024Z,13.32
2018-07-25T14:42:51.468Z,13.27
2018-07-25T14:45:27.702Z,11.63
2018-07-25T14:48:01.254Z,10.70
2018-07-25T14:50:33.981Z,12.20
2018-07-25T14:53:05.577Z,13.07
2018-07-25T14:55:38.861Z,11.43
2018-07-25T14:58:11.585Z,17.33
2018-07-25T15:00:44.358Z,13.83
2018-07-25T15:03:27.483Z,9.00
2018-07-25T15:06:03.714Z,12.30
2018-07-25T15:08:36.415Z,12.47
2018-07-25T15:11:10.168Z,22.50
2018-07-25T15:13:42.763Z,17.40
2018-07-25T15:16:15.607Z,10.90
2018-07-25T15:18:49.317Z,11.57
2018-07-25T15:21:22.209Z,11.53
2018-07-25T15:24:04.816Z,10.83
2018-07-25T15:26:37.968Z,8.33
2018-07-25T15:29:12.035Z,11.20
2018-07-25T15:31:44.717Z,10.40
2018-07-25T15:34:17.558Z,9.03
2018-07-25T15:36:55.491Z,9.40
2018-07-25T15:39:28.994Z,10.53
2018-07-25T15:42:01.579Z,11.50
2018-07-25T15:44:36.998Z,12.50
2018-07-25T15:47:12.197Z,22.07
2018-07-25T15:49:54.630Z,10.50
2018-07-25T15:52:28.533Z,10.55
2018-07-25T15:55:06.531Z,12.40
2018-07-25T15:57:57.040Z,9.50
2018-07-25T16:00:31.684Z,9.90
2018-07-25T16:03:04.970Z,8.63
2018-07-25T16:05:37.998Z,8.40
2018-07-25T16:08:10.836Z,7.73
2018-07-25T16:10:44.235Z,8.40
2018-07-25T16:13:21.385Z,13.17
2018-07-25T16:15:54.034Z,7.47
2018-07-25T16:18:29.970Z,7.00
2018-07-25T16:21:03.757Z,9.97
2018-07-25T16:23:37.575Z,10.13
2018-07-25T16:26:15.328Z,9.43
2018-07-25T16:28:48.626Z,11.20
2018-07-25T16:31:30.835Z,13.97
2018-07-25T16:34:06.613Z,8.80
2018-07-25T16:36:48.969Z,8.87
2018-07-25T16:39:22.021Z,10.72
2018-07-25T16:41:55.035Z,8.77
2018-07-25T16:44:27.866Z,9.50
2018-07-25T16:47:11.080Z,12.03
2018-07-25T16:49:45.462Z,9.00
2018-07-25T16:52:19.374Z,9.20
2018-07-25T16:54:53.605Z,8.78
2018-07-25T16:57:26.288Z,15.63
2018-07-25T17:00:01.565Z,9.10
2018-07-25T17:02:34.312Z,12.27
2018-07-25T17:05:07.128Z,9.63
2018-07-25T17:07:40.320Z,7.17
2018-07-25T17:10:12.814Z,9.98
2018-07-25T17:12:45.392Z,8.93
2018-07-25T17:15:18.325Z,8.63
2018-07-25T17:17:51.607Z,8.18
2018-07-25T17:20:28.812Z,10.20
2018-07-25T17:23:01.277Z,10.63
2018-07-25T17:25:37.592Z,7.17
2018-07-25T17:28:10.429Z,6.53
2018-07-25T17:30:44.314Z,7.20
2018-07-25T17:33:21.094Z,8.27
2018-07-25T17:35:53.676Z,9.75
2018-07-25T17:38:27.766Z,10.25
2018-07-25T17:41:00.470Z,9.88
2018-07-25T17:43:34.060Z,6.35
2018-07-25T17:46:07.903Z,7.78
2018-07-25T17:48:41.948Z,6.72
2018-07-25T17:51:20.684Z,7.17
2018-07-25T17:53:53.154Z,6.03
2018-07-25T17:56:26.659Z,6.28
2018-07-25T17:58:59.348Z,7.03
2018-07-25T18:01:33.974Z,8.25
2018-07-25T18:04:09.025Z,10.03
2018-07-25T18:06:41.814Z,8.95
2018-07-25T18:09:15.547Z,7.45
2018-07-25T18:11:48.082Z,8.65
2018-07-25T18:14:21.174Z,11.12
2018-07-25T18:16:53.693Z,7.70
2018-07-25T18:19:28.242Z,7.00
2018-07-25T18:22:01.812Z,6.78
2018-07-25T18:24:35.543Z,6.67
2018-07-25T18:27:09.327Z,6.85
2018-07-25T18:29:42.827Z,7.53
2018-07-25T18:32:22.096Z,7.20
2018-07-25T18:34:57.891Z,7.60
2018-07-25T18:37:31.360Z,6.50
2018-07-25T18:40:04.195Z,6.70
2018-07-25T18:42:37.403Z,7.70
2018-07-25T18:45:10.441Z,7.90
2018-07-25T18:47:43.383Z,6.47
2018-07-25T18:50:16.337Z,6.50
2018-07-25T18:52:50.069Z,8.75
2018-07-25T18:55:24.467Z,6.10
2018-07-25T18:58:04.216Z,6.37
2018-07-25T19:00:38.071Z,8.50
2018-07-25T19:03:13.731Z,6.95
2018-07-25T19:05:49.628Z,5.12
2018-07-25T19:08:22.413Z,5.85
2018-07-25T19:10:55.357Z,6.45
2018-07-25T19:13:37.158Z,10.72
2018-07-25T19:16:11.102Z,6.05
2018-07-25T19:18:43.830Z,6.95
2018-07-25T19:21:16.973Z,7.42
2018-07-25T19:23:49.948Z,6.87
2018-07-25T19:26:27.665Z,6.75
2018-07-25T19:29:00.341Z,6.25
2018-07-25T19:31:33.063Z,7.20
2018-07-25T19:34:05.582Z,7.83
2018-07-25T19:36:39.241Z,9.35
2018-07-25T19:39:19.371Z,16.30
2018-07-25T19:41:55.530Z,8.43
2018-07-25T19:44:28.399Z,6.60
2018-07-25T19:47:01.550Z,11.20
2018-07-25T19:49:40.615Z,5.37
2018-07-25T19:52:13.946Z,7.85
2018-07-25T19:54:46.867Z,6.12
2018-07-25T19:57:19.640Z,6.28
2018-07-25T19:59:55.727Z,4.95
2018-07-25T20:02:31.365Z,11.97
2018-07-25T20:05:09.712Z,7.40
2018-07-25T20:07:42.299Z,5.85
2018-07-25T20:10:22.171Z,5.28
2018-07-25T20:12:55.154Z,4.75
2018-07-25T20:15:33.649Z,6.95
2018-07-25T20:18:07.379Z,5.65
2018-07-25T20:20:40.037Z,7.78
2018-07-25T20:23:12.884Z,5.85
2018-07-25T20:25:46.650Z,8.03
2018-07-25T20:28:19.308Z,11.22
2018-07-25T20:30:53.489Z,6.45
2018-07-25T20:33:28.769Z,6.22
2018-07-25T20:36:01.968Z,6.55
2018-07-25T20:38:39.766Z,7.95
2018-07-25T20:41:12.903Z,6.28
2018-07-25T20:43:49.514Z,7.75
2018-07-25T20:46:22.143Z,5.35
2018-07-25T20:48:55.158Z,6.42
2018-07-25T20:51:27.810Z,5.58
2018-07-25T20:54:06.499Z,12.07
2018-07-25T20:56:47.155Z,5.62
2018-07-25T20:59:28.753Z,7.47
2018-07-25T21:02:17.347Z,6.22
2018-07-25T21:04:50.362Z,7.37
2018-07-25T21:07:23.000Z,5.15
2018-07-25T21:09:56.819Z,6.35
2018-07-25T21:12:29.532Z,6.22
2018-07-25T21:15:02.576Z,10.78
2018-07-25T21:17:36.921Z,5.28
2018-07-25T21:20:09.607Z,7.78
2018-07-25T21:22:43.690Z,9.68
2018-07-25T21:25:18.087Z,7.03
2018-07-25T21:27:59.105Z,10.58
2018-07-25T21:30:38.751Z,5.20
2018-07-25T21:33:49.701Z,9.13
2018-07-25T21:36:23.682Z,5.95
2018-07-25T21:39:01.384Z,6.83
2018-07-25T21:41:37.898Z,9.43
2018-07-25T21:44:10.586Z,6.47
2018-07-25T21:46:43.367Z,8.43
2018-07-25T21:49:16.400Z,5.60
2018-07-25T21:51:49.272Z,8.93
2018-07-25T21:54:21.923Z,7.92
2018-07-25T21:56:54.678Z,8.10
2018-07-25T21:59:28.807Z,6.33
2018-07-25T22:02:01.606Z,13.72
2018-07-25T22:04:41.781Z,5.10
2018-07-25T22:07:14.359Z,35.75
2018-07-25T22:09:47.894Z,6.72
2018-07-25T22:12:20.568Z,7.97
2018-07-25T22:14:53.186Z,6.28
2018-07-25T22:17:28.477Z,7.70
2018-07-25T22:19:59.753Z,5.67
2018-07-25T22:22:35.529Z,8.80
2018-07-25T22:25:09.465Z,5.97
2018-07-25T22:27:44.227Z,6.83
2018-07-25T22:30:16.745Z,13.43
2018-07-25T22:32:49.730Z,8.45
2018-07-25T22:35:22.667Z,6.70
2018-07-25T22:37:55.220Z,8.63
2018-07-25T22:40:28.256Z,13.13
2018-07-25T22:43:08.046Z,9.10
2018-07-25T22:45:44.826Z,9.20
2018-07-25T22:48:20.602Z,7.53
2018-07-25T22:51:01.984Z,7.10
2018-07-25T22:53:49.517Z,13.43
2018-07-25T22:56:24.217Z,8.83
2018-07-25T22:59:03.055Z,9.20
2018-07-25T23:01:39.039Z,8.37
2018-07-25T23:04:11.969Z,10.00
2018-07-25T23:06:44.549Z,9.25
2018-07-25T23:09:17.227Z,14.37
2018-07-25T23:11:49.754Z,19.85
2018-07-25T23:14:22.786Z,7.43
2018-07-25T23:16:54.038Z,11.10
2018-07-25T23:19:26.934Z,9.75
2018-07-25T23:22:00.138Z,8.93
2018-07-25T23:24:32.854Z,9.03
2018-07-25T23:27:06.086Z,9.93
2018-07-25T23:29:38.879Z,8.30
2018-07-25T23:32:11.817Z,11.83
2018-07-25T23:34:44.971Z,9.47
2018-07-25T23:37:17.943Z,14.87
2018-07-25T23:39:54.127Z,19.77
2018-07-25T23:42:26.979Z,8.40
2018-07-25T23:44:59.678Z,10.30
2018-07-25T23:47:32.340Z,8.23
2018-07-25T23:50:05.441Z,13.00
2018-07-25T23:52:38.223Z,12.20
2018-07-25T23:55:11.106Z,15.07
2018-07-25T23:57:43.856Z,11.37
